Terminal Aerodrome Forecast
Issued by NWS Upton, NY

Home | Current Version | Previous Version | Text Only | Print | Product List | Glossary On
Versions: 1 2 3 4 5 6 7 8 9 10 11 12 13 14 15 16 17 18 19 20 21 22 23 24 25 26 27 28 29
988
FTUS41 KOKX 220147 AAA
TAFISP
TAF AMD
KISP 220147Z 2202/2224 21008KT P6SM SCT040 SCT250
     FM220600 21005KT 6SM BR SCT015 SCT250
      TEMPO 2208/2212 BKN015
     FM221400 21009KT P6SM FEW015 BKN030
     FM221600 21013G20KT P6SM SCT040 BKN250
     FM222000 21016G24KT P6SM SCT050 BKN250=

USA.gov is the U.S. government's official web portal to all federal, state and local government web resources and services.